Terminal Aerodrome Forecast
Issued by NWS

Home | Current Version | Previous Version | Text Only | Print | Product List | Glossary On
Versions: 1 2 3 4 5 6 7 8 9 10 11 12 13 14 15 16 17
000
FTUS43 KICT 250520
TAFSLN
TAF
KSLN 250520Z 2506/2606 34018G22KT P6SM VCSH OVC007
     FM251000 34018G25KT P6SM VCSH OVC015
     FM251200 33018G25KT P6SM OVC015
     FM252100 34012KT P6SM OVC025
     FM260300 36005KT P6SM BKN035=

USA.gov is the U.S. government's official web portal to all federal, state and local government web resources and services.